Palermo, ME (04354)

10:36 AM EDT die 27o March, anno 2017 (GMT -0400)
Sandy Cove | | Change Station
Active Advisory: Freezing Rain Advisory

Elev 300 ft 44.35 °N, 69.45 °W | Updated 5 seconds ago

Globuli Glaciales
Globuli Glaciales
32.2 °F
Feels Like 32 °F
N
1.8
Ventus Variabilis Ventus from Inter Austrum et Zephyrum
Gusts 4.3 mph

Hodie
High -- | Low -- °F
--% Chance of Precip.
Yesterday
High -- | Low -- °F
Precip. -- in
Pressio 30.25 in
Visibilitas 4.0 milia passuum
Clouds Aequaliter Nubila 800 ft
Frigus Venti 32 °F
Frigus in quo Ros apparet 30 °F
Umor 90%
Rainfall 0.02 in
Snow Depth Not available.
6:27 AM 6:59 PM
Waning Crescent, 0% visible
SPECI KWVL 271422Z AUTO 00000KT 4SM UP BR OVC008 00/M01 A3025 RMK AO2 CIG 005V011 P0002 FZRANO
Pressio 30.25 in
Visibilitas 4.0 milia passuum
Clouds Aequaliter Nubila 800 ft
Frigus Venti 32 °F
Frigus in quo Ros apparet 30 °F
Umor 90%
Rainfall 0.02 in
Snow Depth Not available.
6:27 AM 6:59 PM
Waning Crescent, 0% visible
SPECI KWVL 271422Z AUTO 00000KT 4SM UP BR OVC008 00/M01 A3025 RMK AO2 CIG 005V011 P0002 FZRANO

Get Your Daily Forecast Email!

Thanks for signing up!

Be on the lookout for a verification email in your inbox.

You'll start receiving severe weather alerts in your inbox..

×

10-Day Weather Forecast

Almanac

Astronomy

Mar. 27, 2017 Rise Set
Actual Time
Civil Twilight
Nautical Twilight
Astronomical Twilight
Moon
Length Of Visible Light
Length of Day
Tomorrow will be .
, % of the Moon is Illuminated

Today's Extremes

State Highs State Lows

Community

WunderPhotos

Upload Photos

1,962,540 photos uploaded!

WunderBlog® & News

Nearby

Air Quality

  Air Quality AQ Index Pollutant
Not available.

Snow Depth

Station Depth Elevation

Earthquake Activity

City Distance Mag. Time & Date
Minimum magnitude displayed is 2.5.

Earthquake Activity

City Distance Mag. Time & Date
Minimum magnitude displayed is 2.5.

Coastal Water Temperatures

Locus Calor

Stations

Nearby Weather Stations

Station Location Temp Frigus Venti Frigus in quo Ros apparet Umor Ventus Precip. Elev Renovata Type
                   

Watches & Warnings

Freezing Rain Advisory
Issued: 8:46 AM EDT Mar. 27, 2017 – National Weather Service

... Freezing Rain Advisory remains in effect until 2 PM EDT this
afternoon...

* ice accumulations... around a trace.

* Hazard types... freezing rain.

* Timing... freezing rain... and some pockets of sleet should
transition to rain by midday.

* Impacts... roads will be slippery. Motorists should slow down
and use caution this morning.

* Winds... east 5 mph or less.

* Temperatures... in the lower 30s.

Precautionary/preparedness actions...

A Freezing Rain Advisory means that periods of freezing rain or
freezing drizzle will cause travel difficulties. Be prepared for
slippery roads. Slow down and use caution while driving.